Terminal Aerodrome Forecast
Issued by NWS

Current Version | Previous Version | Graphics & Text | Print | Product List | Glossary On
Versions: 1 2 3 4 5 6 7 8 9 10 11 12 13 14 15 16 17 18 19 20 21 22 23 24 25 26 27
000
FTUS41 KILN 031057 AAB
TAFLUK
TAF AMD
KLUK 031057Z 0311/0406 00000KT P6SM OVC035
     FM031300 30005KT P6SM OVC025
     FM031800 VRB03KT P6SM BKN040
     FM040300 00000KT P6SM FEW040 BKN150=

USA.gov is the U.S. government's official web portal to all federal, state and local government web resources and services.